NKS2406 KATL-KFLL
Flight info
| Callsign | NKS2406 |
|---|---|
| Flight time | 1h 27m |
| Altitude | 37000 |
| Route | SMLTZ3 WALET ZPLEN TEEKY4 |
| Aircraft | A320/M-SDE3FGHIRWY/LB1 |
Departure
| Time | 2026-05-03 22:52 |
|---|---|
| Airport | Hartsfield Jackson Atlanta International Airport (KATL) |
Arrival
| Time | 2026-05-04 00:19 |
|---|---|
| Airport | Fort Lauderdale Hollywood International Airport (KFLL) |
| Time | Latitude | Longitude | Altitude | Speed | Heading |
|---|---|---|---|---|---|
| 2026-05-03 22:19 | 33.64324 | -84.44196 | 1006 ft | 0 kts | 272° |
| 2026-05-03 22:37 | 33.64324 | -84.44189 | 1006 ft | 4 kts | 268° |
| 2026-05-03 22:38 | 33.64324 | -84.44158 | 1006 ft | 4 kts | 264° |
| 2026-05-03 22:38 | 33.64331 | -84.44128 | 1006 ft | 4 kts | 230° |
| 2026-05-03 22:38 | 33.64347 | -84.44115 | 1006 ft | 1 kts | 180° |
| 2026-05-03 22:38 | 33.64348 | -84.44115 | 1006 ft | 0 kts | 180° |
| 2026-05-03 22:40 | 33.64335 | -84.44115 | 1006 ft | 5 kts | 180° |
| 2026-05-03 22:41 | 33.64329 | -84.44115 | 1006 ft | 0 kts | 179° |
| 2026-05-03 22:41 | 33.64304 | -84.44115 | 1006 ft | 6 kts | 179° |
| 2026-05-03 22:41 | 33.64235 | -84.44114 | 1006 ft | 12 kts | 180° |
| 2026-05-03 22:42 | 33.64149 | -84.44114 | 1006 ft | 15 kts | 180° |
| 2026-05-03 22:42 | 33.64027 | -84.44113 | 1006 ft | 18 kts | 180° |
| 2026-05-03 22:42 | 33.63938 | -84.44114 | 1006 ft | 20 kts | 180° |
| 2026-05-03 22:42 | 33.63774 | -84.44114 | 1006 ft | 0 kts | 181° |
| 2026-05-03 22:43 | 33.63773 | -84.44114 | 1006 ft | 0 kts | 181° |
| 2026-05-03 22:43 | 33.63772 | -84.44114 | 1006 ft | 0 kts | 181° |
| 2026-05-03 22:44 | 33.63758 | -84.44114 | 1006 ft | 4 kts | 181° |
| 2026-05-03 22:45 | 33.63731 | -84.44114 | 1007 ft | 8 kts | 181° |
| 2026-05-03 22:45 | 33.63669 | -84.44081 | 1007 ft | 13 kts | 121° |
| 2026-05-03 22:45 | 33.63663 | -84.43959 | 1006 ft | 16 kts | 89° |
| 2026-05-03 22:45 | 33.63665 | -84.43813 | 1006 ft | 19 kts | 90° |
| 2026-05-03 22:46 | 33.63664 | -84.43639 | 1006 ft | 22 kts | 90° |
| 2026-05-03 22:46 | 33.63663 | -84.43439 | 1006 ft | 21 kts | 90° |
| 2026-05-03 22:46 | 33.63663 | -84.43255 | 1006 ft | 23 kts | 90° |
| 2026-05-03 22:46 | 33.63664 | -84.43050 | 1006 ft | 25 kts | 89° |
| 2026-05-03 22:47 | 33.63668 | -84.42833 | 1006 ft | 24 kts | 90° |
| 2026-05-03 22:47 | 33.63652 | -84.42623 | 1007 ft | 25 kts | 89° |
| 2026-05-03 22:47 | 33.63658 | -84.42394 | 1007 ft | 26 kts | 88° |
| 2026-05-03 22:47 | 33.63657 | -84.42198 | 1007 ft | 21 kts | 91° |
| 2026-05-03 22:48 | 33.63656 | -84.42020 | 1007 ft | 22 kts | 90° |
| 2026-05-03 22:48 | 33.63655 | -84.41822 | 1006 ft | 25 kts | 90° |
| 2026-05-03 22:48 | 33.63656 | -84.41624 | 1006 ft | 23 kts | 89° |
| 2026-05-03 22:48 | 33.63657 | -84.41437 | 1006 ft | 22 kts | 89° |
| 2026-05-03 22:49 | 33.63657 | -84.41283 | 1006 ft | 17 kts | 92° |
| 2026-05-03 22:49 | 33.63653 | -84.41135 | 1006 ft | 19 kts | 90° |
| 2026-05-03 22:49 | 33.63654 | -84.40974 | 1006 ft | 19 kts | 89° |
| 2026-05-03 22:49 | 33.63656 | -84.40830 | 1006 ft | 17 kts | 91° |
| 2026-05-03 22:50 | 33.63611 | -84.40742 | 1007 ft | 12 kts | 169° |
| 2026-05-03 22:50 | 33.63519 | -84.40745 | 1007 ft | 15 kts | 183° |
| 2026-05-03 22:50 | 33.63471 | -84.40833 | 1007 ft | 14 kts | 271° |
| 2026-05-03 22:50 | 33.63472 | -84.40923 | 1007 ft | 0 kts | 269° |
| 2026-05-03 22:51 | 33.63472 | -84.40926 | 1007 ft | 2 kts | 269° |
| 2026-05-03 22:51 | 33.63473 | -84.41221 | 1005 ft | 77 kts | 270° |
| 2026-05-03 22:51 | 33.63477 | -84.42115 | 1007 ft | 133 kts | 270° |
| 2026-05-03 22:52 | 33.63477 | -84.43455 | 1120 ft | 170 kts | 271° |
| 2026-05-03 22:52 | 33.63464 | -84.44985 | 1655 ft | 186 kts | 270° |
| 2026-05-03 22:52 | 33.63475 | -84.46592 | 2192 ft | 208 kts | 271° |
| 2026-05-03 22:52 | 33.63478 | -84.47786 | 2547 ft | 224 kts | 272° |
| 2026-05-03 22:53 | 33.63473 | -84.50469 | 3350 ft | 251 kts | 271° |
| 2026-05-03 22:53 | 33.63466 | -84.52566 | 4274 ft | 255 kts | 271° |
| 2026-05-03 22:53 | 33.63461 | -84.54712 | 5279 ft | 258 kts | 271° |
| 2026-05-03 22:53 | 33.63460 | -84.56942 | 6235 ft | 264 kts | 272° |
| 2026-05-03 22:54 | 33.63460 | -84.59126 | 7092 ft | 269 kts | 271° |
| 2026-05-03 22:54 | 33.63459 | -84.61385 | 8004 ft | 272 kts | 271° |
| 2026-05-03 22:54 | 33.63232 | -84.63626 | 8888 ft | 278 kts | 256° |
| 2026-05-03 22:54 | 33.62375 | -84.65776 | 9800 ft | 286 kts | 236° |
| 2026-05-03 22:55 | 33.60948 | -84.67475 | 10611 ft | 294 kts | 217° |
| 2026-05-03 22:55 | 33.59126 | -84.68634 | 11416 ft | 301 kts | 203° |
| 2026-05-03 22:55 | 33.57764 | -84.69117 | 11961 ft | 305 kts | 194° |
| 2026-05-03 22:55 | 33.54958 | -84.69236 | 13032 ft | 313 kts | 174° |
| 2026-05-03 22:56 | 33.53500 | -84.68959 | 13591 ft | 315 kts | 173° |
| 2026-05-03 22:56 | 33.51310 | -84.68536 | 14347 ft | 318 kts | 173° |
| 2026-05-03 22:56 | 33.49144 | -84.68124 | 15050 ft | 321 kts | 174° |
| 2026-05-03 22:56 | 33.46918 | -84.67707 | 15753 ft | 324 kts | 174° |
| 2026-05-03 22:57 | 33.44690 | -84.67274 | 16449 ft | 328 kts | 171° |
| 2026-05-03 22:57 | 33.42496 | -84.66399 | 17128 ft | 335 kts | 157° |
| 2026-05-03 22:57 | 33.40444 | -84.64906 | 17486 ft | 354 kts | 143° |
| 2026-05-03 22:57 | 33.38608 | -84.62825 | 17647 ft | 373 kts | 137° |
| 2026-05-03 22:58 | 33.36745 | -84.60589 | 18144 ft | 381 kts | 137° |
| 2026-05-03 22:58 | 33.34863 | -84.58345 | 18701 ft | 386 kts | 137° |
| 2026-05-03 22:58 | 33.32920 | -84.56048 | 19274 ft | 389 kts | 137° |
| 2026-05-03 22:58 | 33.30986 | -84.53766 | 19856 ft | 392 kts | 137° |
| 2026-05-03 22:59 | 33.29032 | -84.51464 | 20423 ft | 396 kts | 137° |
| 2026-05-03 22:59 | 33.27036 | -84.49118 | 20989 ft | 399 kts | 137° |
| 2026-05-03 22:59 | 33.25053 | -84.46789 | 21531 ft | 402 kts | 137° |
| 2026-05-03 22:59 | 33.23052 | -84.44435 | 22058 ft | 405 kts | 137° |
| 2026-05-03 23:00 | 33.21041 | -84.42070 | 22569 ft | 408 kts | 137° |
| 2026-05-03 23:00 | 33.19000 | -84.39672 | 23087 ft | 411 kts | 137° |
| 2026-05-03 23:00 | 33.16952 | -84.37267 | 23608 ft | 415 kts | 137° |
| 2026-05-03 23:00 | 33.14859 | -84.34812 | 24072 ft | 418 kts | 137° |
| 2026-05-03 23:01 | 33.12789 | -84.32382 | 24520 ft | 420 kts | 138° |
| 2026-05-03 23:01 | 33.10657 | -84.29882 | 24951 ft | 423 kts | 138° |
| 2026-05-03 23:01 | 33.08544 | -84.27407 | 25389 ft | 425 kts | 139° |
| 2026-05-03 23:01 | 33.06411 | -84.24918 | 25816 ft | 428 kts | 139° |
| 2026-05-03 23:02 | 33.04270 | -84.22422 | 26252 ft | 431 kts | 139° |
| 2026-05-03 23:02 | 33.02093 | -84.19947 | 26665 ft | 431 kts | 144° |
| 2026-05-03 23:02 | 32.99691 | -84.17842 | 27089 ft | 428 kts | 153° |
| 2026-05-03 23:02 | 32.97044 | -84.16226 | 27508 ft | 425 kts | 163° |
| 2026-05-03 23:03 | 32.94134 | -84.15027 | 27945 ft | 424 kts | 167° |
| 2026-05-03 23:03 | 32.91409 | -84.13980 | 28356 ft | 426 kts | 167° |
| 2026-05-03 23:03 | 32.88617 | -84.12908 | 28771 ft | 428 kts | 167° |
| 2026-05-03 23:03 | 32.85721 | -84.11796 | 29206 ft | 430 kts | 167° |
| 2026-05-03 23:04 | 32.82828 | -84.10681 | 29632 ft | 433 kts | 167° |
| 2026-05-03 23:04 | 32.79930 | -84.09558 | 30060 ft | 435 kts | 167° |
| 2026-05-03 23:04 | 32.77020 | -84.08426 | 30442 ft | 438 kts | 168° |
| 2026-05-03 23:04 | 32.74134 | -84.07305 | 30776 ft | 439 kts | 168° |
| 2026-05-03 23:05 | 32.71231 | -84.06178 | 31186 ft | 440 kts | 169° |
| 2026-05-03 23:05 | 32.68313 | -84.05049 | 31559 ft | 441 kts | 169° |
| 2026-05-03 23:05 | 32.65398 | -84.03928 | 31976 ft | 440 kts | 169° |
| 2026-05-03 23:05 | 32.62450 | -84.02797 | 32516 ft | 438 kts | 169° |
| 2026-05-03 23:06 | 32.59562 | -84.01687 | 33054 ft | 436 kts | 170° |
| 2026-05-03 23:06 | 32.56717 | -84.00590 | 33586 ft | 434 kts | 170° |
| 2026-05-03 23:06 | 32.53810 | -83.99468 | 34129 ft | 431 kts | 170° |
| 2026-05-03 23:06 | 32.50976 | -83.98374 | 34566 ft | 430 kts | 171° |
| 2026-05-03 23:07 | 32.48124 | -83.97276 | 34946 ft | 429 kts | 171° |
| 2026-05-03 23:07 | 32.45271 | -83.96184 | 35294 ft | 429 kts | 171° |
| 2026-05-03 23:07 | 32.42437 | -83.95105 | 35641 ft | 429 kts | 171° |
| 2026-05-03 23:07 | 32.39587 | -83.94018 | 35960 ft | 429 kts | 171° |
| 2026-05-03 23:08 | 32.36750 | -83.92934 | 36301 ft | 430 kts | 171° |
| 2026-05-03 23:08 | 32.33871 | -83.91831 | 36618 ft | 430 kts | 171° |
| 2026-05-03 23:08 | 32.31037 | -83.90746 | 36928 ft | 429 kts | 172° |
| 2026-05-03 23:08 | 32.28131 | -83.89636 | 37095 ft | 429 kts | 172° |
| 2026-05-03 23:09 | 32.25309 | -83.88560 | 37128 ft | 427 kts | 172° |
| 2026-05-03 23:09 | 32.19652 | -83.86404 | 37077 ft | 426 kts | 173° |
| 2026-05-03 23:10 | 32.13997 | -83.84251 | 37125 ft | 425 kts | 173° |
| 2026-05-03 23:10 | 32.08350 | -83.82102 | 37125 ft | 425 kts | 173° |
| 2026-05-03 23:11 | 32.02746 | -83.79976 | 37129 ft | 425 kts | 173° |
| 2026-05-03 23:11 | 31.98025 | -83.78185 | 37133 ft | 425 kts | 173° |
| 2026-05-03 23:12 | 31.92375 | -83.76036 | 37132 ft | 426 kts | 172° |
| 2026-05-03 23:12 | 31.86746 | -83.73895 | 37131 ft | 426 kts | 173° |
| 2026-05-03 23:13 | 31.81102 | -83.71762 | 37136 ft | 426 kts | 173° |
| 2026-05-03 23:13 | 31.75458 | -83.69632 | 37130 ft | 425 kts | 173° |
| 2026-05-03 23:14 | 31.69822 | -83.67514 | 37144 ft | 425 kts | 173° |
| 2026-05-03 23:14 | 31.64217 | -83.65388 | 37147 ft | 426 kts | 173° |
| 2026-05-03 23:15 | 31.58558 | -83.63212 | 37114 ft | 426 kts | 173° |
| 2026-05-03 23:15 | 31.52931 | -83.61046 | 37124 ft | 426 kts | 173° |
| 2026-05-03 23:16 | 31.47279 | -83.58877 | 37132 ft | 426 kts | 173° |
| 2026-05-03 23:16 | 31.41619 | -83.56712 | 37136 ft | 426 kts | 173° |
| 2026-05-03 23:17 | 31.35983 | -83.54559 | 37117 ft | 425 kts | 173° |
| 2026-05-03 23:17 | 31.30295 | -83.52382 | 37091 ft | 425 kts | 174° |
| 2026-05-03 23:18 | 31.24680 | -83.50236 | 37129 ft | 424 kts | 174° |
| 2026-05-03 23:18 | 31.19066 | -83.48103 | 37138 ft | 424 kts | 174° |
| 2026-05-03 23:19 | 31.13446 | -83.45968 | 37140 ft | 424 kts | 174° |
| 2026-05-03 23:19 | 31.07790 | -83.43825 | 37143 ft | 424 kts | 174° |
| 2026-05-03 23:20 | 31.02196 | -83.41705 | 37106 ft | 424 kts | 174° |
| 2026-05-03 23:20 | 30.96608 | -83.39591 | 37122 ft | 423 kts | 174° |
| 2026-05-03 23:21 | 30.90972 | -83.37457 | 37138 ft | 423 kts | 174° |
| 2026-05-03 23:21 | 30.85370 | -83.35328 | 37136 ft | 423 kts | 174° |
| 2026-05-03 23:22 | 30.76952 | -83.32150 | 37096 ft | 423 kts | 175° |
| 2026-05-03 23:22 | 30.71343 | -83.30025 | 37117 ft | 426 kts | 172° |
| 2026-05-03 23:23 | 30.65856 | -83.27161 | 37129 ft | 434 kts | 168° |
| 2026-05-03 23:23 | 30.60373 | -83.24197 | 37137 ft | 434 kts | 168° |
| 2026-05-03 23:24 | 30.54863 | -83.21223 | 37144 ft | 434 kts | 168° |
| 2026-05-03 23:24 | 30.49335 | -83.18254 | 37148 ft | 434 kts | 168° |
| 2026-05-03 23:25 | 30.43848 | -83.15318 | 37119 ft | 434 kts | 168° |
| 2026-05-03 23:25 | 30.38334 | -83.12356 | 37138 ft | 433 kts | 168° |
| 2026-05-03 23:26 | 30.32874 | -83.09418 | 37139 ft | 432 kts | 168° |
| 2026-05-03 23:26 | 30.27424 | -83.06504 | 37140 ft | 432 kts | 168° |
| 2026-05-03 23:27 | 30.21950 | -83.03586 | 37138 ft | 432 kts | 168° |
| 2026-05-03 23:27 | 30.16480 | -83.00666 | 37108 ft | 431 kts | 169° |
| 2026-05-03 23:28 | 30.10992 | -82.97740 | 37118 ft | 431 kts | 169° |
| 2026-05-03 23:28 | 30.05539 | -82.94841 | 37137 ft | 431 kts | 169° |
| 2026-05-03 23:29 | 30.00096 | -82.91952 | 37121 ft | 432 kts | 169° |
| 2026-05-03 23:29 | 29.94603 | -82.89038 | 37132 ft | 431 kts | 169° |
| 2026-05-03 23:30 | 29.89150 | -82.86146 | 37075 ft | 431 kts | 169° |
| 2026-05-03 23:30 | 29.84612 | -82.83741 | 37089 ft | 431 kts | 169° |
| 2026-05-03 23:31 | 29.79119 | -82.80838 | 37099 ft | 431 kts | 169° |
| 2026-05-03 23:31 | 29.73670 | -82.77964 | 37061 ft | 431 kts | 169° |
| 2026-05-03 23:32 | 29.68182 | -82.75060 | 37100 ft | 430 kts | 169° |
| 2026-05-03 23:32 | 29.62750 | -82.72197 | 37120 ft | 429 kts | 169° |
| 2026-05-03 23:33 | 29.57339 | -82.69348 | 37091 ft | 428 kts | 170° |
| 2026-05-03 23:33 | 29.51911 | -82.66502 | 37104 ft | 427 kts | 170° |
| 2026-05-03 23:34 | 29.46472 | -82.63644 | 37104 ft | 427 kts | 170° |
| 2026-05-03 23:34 | 29.41059 | -82.60798 | 37111 ft | 427 kts | 170° |
| 2026-05-03 23:35 | 29.35655 | -82.57964 | 37108 ft | 427 kts | 170° |
| 2026-05-03 23:35 | 29.30242 | -82.55133 | 37081 ft | 426 kts | 170° |
| 2026-05-03 23:36 | 29.27533 | -82.53830 | 37087 ft | 415 kts | 176° |
| 2026-05-03 23:36 | 29.24793 | -82.53016 | 37097 ft | 398 kts | 185° |
| 2026-05-03 23:36 | 29.19367 | -82.52148 | 37103 ft | 404 kts | 181° |
| 2026-05-03 23:37 | 29.16655 | -82.51629 | 37102 ft | 389 kts | 189° |
| 2026-05-03 23:37 | 29.13990 | -82.51558 | 37101 ft | 378 kts | 195° |
| 2026-05-03 23:37 | 29.08750 | -82.51961 | 37082 ft | 375 kts | 197° |
| 2026-05-03 23:38 | 29.03541 | -82.52287 | 37019 ft | 381 kts | 195° |
| 2026-05-03 23:38 | 28.98163 | -82.52374 | 37069 ft | 389 kts | 193° |
| 2026-05-03 23:39 | 28.92704 | -82.52344 | 37087 ft | 390 kts | 193° |
| 2026-05-03 23:39 | 28.87277 | -82.52326 | 37093 ft | 389 kts | 193° |
| 2026-05-03 23:40 | 28.81872 | -82.52339 | 37102 ft | 389 kts | 194° |
| 2026-05-03 23:40 | 28.76464 | -82.52362 | 37100 ft | 388 kts | 194° |
| 2026-05-03 23:41 | 28.71021 | -82.52388 | 37045 ft | 389 kts | 194° |
| 2026-05-03 23:41 | 28.65604 | -82.52407 | 37055 ft | 389 kts | 194° |
| 2026-05-03 23:42 | 28.60150 | -82.52429 | 37077 ft | 390 kts | 194° |
| 2026-05-03 23:42 | 28.54708 | -82.52449 | 37074 ft | 390 kts | 194° |
| 2026-05-03 23:43 | 28.49346 | -82.52469 | 37079 ft | 390 kts | 194° |
| 2026-05-03 23:43 | 28.43917 | -82.52492 | 37049 ft | 390 kts | 194° |
| 2026-05-03 23:44 | 28.38459 | -82.52513 | 37077 ft | 393 kts | 194° |
| 2026-05-03 23:44 | 28.32960 | -82.52530 | 37073 ft | 393 kts | 194° |
| 2026-05-03 23:45 | 28.27485 | -82.52551 | 37079 ft | 393 kts | 194° |
| 2026-05-03 23:45 | 28.22001 | -82.52571 | 37083 ft | 393 kts | 194° |
| 2026-05-03 23:46 | 28.16538 | -82.52595 | 37087 ft | 393 kts | 194° |
| 2026-05-03 23:46 | 28.11060 | -82.52624 | 37034 ft | 394 kts | 193° |
| 2026-05-03 23:47 | 28.05586 | -82.52647 | 37042 ft | 395 kts | 193° |
| 2026-05-03 23:47 | 28.00026 | -82.52472 | 37053 ft | 409 kts | 185° |
| 2026-05-03 23:48 | 27.97179 | -82.51710 | 37057 ft | 426 kts | 176° |
| 2026-05-03 23:48 | 27.94373 | -82.50708 | 37060 ft | 427 kts | 177° |
| 2026-05-03 23:48 | 27.88610 | -82.48644 | 37057 ft | 427 kts | 177° |
| 2026-05-03 23:49 | 27.82948 | -82.46632 | 37025 ft | 429 kts | 176° |
| 2026-05-03 23:49 | 27.77246 | -82.44615 | 37043 ft | 430 kts | 176° |
| 2026-05-03 23:50 | 27.72489 | -82.42933 | 37052 ft | 430 kts | 176° |
| 2026-05-03 23:50 | 27.66004 | -82.40640 | 37062 ft | 430 kts | 176° |
| 2026-05-03 23:51 | 27.60278 | -82.38616 | 37058 ft | 430 kts | 176° |
| 2026-05-03 23:51 | 27.54568 | -82.36603 | 37068 ft | 431 kts | 176° |
| 2026-05-03 23:52 | 27.48838 | -82.34585 | 37074 ft | 431 kts | 176° |
| 2026-05-03 23:52 | 27.44045 | -82.32893 | 37079 ft | 431 kts | 176° |
| 2026-05-03 23:53 | 27.38329 | -82.30821 | 37082 ft | 438 kts | 171° |
| 2026-05-03 23:53 | 27.35544 | -82.29299 | 37079 ft | 453 kts | 163° |
| 2026-05-03 23:53 | 27.32742 | -82.27507 | 37079 ft | 453 kts | 163° |
| 2026-05-03 23:54 | 27.27317 | -82.24046 | 37077 ft | 453 kts | 164° |
| 2026-05-03 23:54 | 27.21782 | -82.20542 | 36565 ft | 465 kts | 163° |
| 2026-05-03 23:55 | 27.18941 | -82.18755 | 35777 ft | 470 kts | 162° |
| 2026-05-03 23:55 | 27.16113 | -82.16961 | 35391 ft | 464 kts | 162° |
| 2026-05-03 23:55 | 27.13322 | -82.15180 | 34846 ft | 462 kts | 162° |
| 2026-05-03 23:55 | 27.10503 | -82.13389 | 34087 ft | 465 kts | 162° |
| 2026-05-03 23:56 | 27.07659 | -82.11592 | 33301 ft | 466 kts | 162° |
| 2026-05-03 23:56 | 27.04870 | -82.09829 | 32785 ft | 462 kts | 161° |
| 2026-05-03 23:56 | 27.02032 | -82.08032 | 32232 ft | 458 kts | 161° |
| 2026-05-03 23:56 | 26.99313 | -82.06314 | 31698 ft | 454 kts | 161° |
| 2026-05-03 23:57 | 26.96619 | -82.04434 | 31149 ft | 461 kts | 153° |
| 2026-05-03 23:57 | 26.94188 | -82.02024 | 30583 ft | 472 kts | 142° |
| 2026-05-03 23:57 | 26.91942 | -81.99361 | 30062 ft | 470 kts | 142° |
| 2026-05-03 23:57 | 26.89650 | -81.96634 | 29463 ft | 466 kts | 142° |
| 2026-05-03 23:58 | 26.87439 | -81.94002 | 28937 ft | 461 kts | 142° |
| 2026-05-03 23:58 | 26.85239 | -81.91390 | 28409 ft | 457 kts | 142° |
| 2026-05-03 23:58 | 26.83066 | -81.88824 | 27884 ft | 453 kts | 142° |
| 2026-05-03 23:58 | 26.80897 | -81.86274 | 27351 ft | 449 kts | 142° |
| 2026-05-03 23:59 | 26.78745 | -81.83744 | 26836 ft | 445 kts | 142° |
| 2026-05-03 23:59 | 26.76589 | -81.81209 | 26323 ft | 441 kts | 142° |
| 2026-05-03 23:59 | 26.74496 | -81.78754 | 26134 ft | 430 kts | 143° |
| 2026-05-03 23:59 | 26.72441 | -81.76355 | 25753 ft | 425 kts | 143° |
| 2026-05-04 00:00 | 26.70402 | -81.73986 | 25348 ft | 421 kts | 143° |
| 2026-05-04 00:00 | 26.68372 | -81.71629 | 24962 ft | 417 kts | 143° |
| 2026-05-04 00:00 | 26.66369 | -81.69309 | 24558 ft | 414 kts | 143° |
| 2026-05-04 00:00 | 26.64372 | -81.66998 | 24171 ft | 411 kts | 143° |
| 2026-05-04 00:01 | 26.62475 | -81.64605 | 23736 ft | 415 kts | 135° |
| 2026-05-04 00:01 | 26.60701 | -81.61978 | 23180 ft | 414 kts | 135° |
| 2026-05-04 00:01 | 26.58979 | -81.59414 | 22711 ft | 411 kts | 134° |
| 2026-05-04 00:01 | 26.57263 | -81.56853 | 22245 ft | 408 kts | 134° |
| 2026-05-04 00:02 | 26.55588 | -81.54352 | 21790 ft | 405 kts | 134° |
| 2026-05-04 00:02 | 26.53904 | -81.51841 | 21330 ft | 401 kts | 134° |
| 2026-05-04 00:02 | 26.52214 | -81.49327 | 20875 ft | 398 kts | 134° |
| 2026-05-04 00:02 | 26.50553 | -81.46864 | 20438 ft | 394 kts | 134° |
| 2026-05-04 00:03 | 26.48913 | -81.44440 | 20010 ft | 391 kts | 134° |
| 2026-05-04 00:03 | 26.47273 | -81.42019 | 19592 ft | 388 kts | 134° |
| 2026-05-04 00:03 | 26.45649 | -81.39621 | 19177 ft | 385 kts | 134° |
| 2026-05-04 00:03 | 26.44041 | -81.37244 | 18762 ft | 382 kts | 134° |
| 2026-05-04 00:04 | 26.42455 | -81.34897 | 18356 ft | 379 kts | 133° |
| 2026-05-04 00:04 | 26.40818 | -81.32487 | 17872 ft | 376 kts | 134° |
| 2026-05-04 00:04 | 26.39207 | -81.30233 | 17413 ft | 372 kts | 136° |
| 2026-05-04 00:04 | 26.37555 | -81.28021 | 16969 ft | 369 kts | 136° |
| 2026-05-04 00:05 | 26.35922 | -81.25875 | 16496 ft | 367 kts | 136° |
| 2026-05-04 00:05 | 26.34277 | -81.23717 | 16063 ft | 364 kts | 136° |
| 2026-05-04 00:05 | 26.32645 | -81.21568 | 15636 ft | 362 kts | 136° |
| 2026-05-04 00:05 | 26.31005 | -81.19399 | 15215 ft | 360 kts | 135° |
| 2026-05-04 00:06 | 26.29395 | -81.17260 | 14799 ft | 358 kts | 135° |
| 2026-05-04 00:06 | 26.27812 | -81.15152 | 14420 ft | 355 kts | 135° |
| 2026-05-04 00:06 | 26.26221 | -81.13045 | 14047 ft | 352 kts | 135° |
| 2026-05-04 00:06 | 26.24643 | -81.10965 | 13653 ft | 350 kts | 135° |
| 2026-05-04 00:07 | 26.23058 | -81.08879 | 13233 ft | 347 kts | 135° |
| 2026-05-04 00:07 | 26.21499 | -81.06835 | 12830 ft | 345 kts | 135° |
| 2026-05-04 00:07 | 26.19955 | -81.04816 | 12292 ft | 340 kts | 135° |
| 2026-05-04 00:07 | 26.18430 | -81.02817 | 11638 ft | 337 kts | 134° |
| 2026-05-04 00:08 | 26.16921 | -81.00835 | 11021 ft | 334 kts | 134° |
| 2026-05-04 00:08 | 26.15501 | -80.98831 | 10619 ft | 326 kts | 125° |
| 2026-05-04 00:08 | 26.14539 | -80.96574 | 10176 ft | 322 kts | 109° |
| 2026-05-04 00:08 | 26.14072 | -80.94151 | 9636 ft | 320 kts | 101° |
| 2026-05-04 00:09 | 26.13676 | -80.91687 | 9084 ft | 316 kts | 101° |
| 2026-05-04 00:09 | 26.13292 | -80.89331 | 8630 ft | 311 kts | 102° |
| 2026-05-04 00:09 | 26.12904 | -80.86976 | 8257 ft | 308 kts | 102° |
| 2026-05-04 00:09 | 26.12507 | -80.84601 | 7869 ft | 306 kts | 102° |
| 2026-05-04 00:10 | 26.12121 | -80.82296 | 7499 ft | 304 kts | 102° |
| 2026-05-04 00:10 | 26.11865 | -80.80773 | 7253 ft | 302 kts | 102° |
| 2026-05-04 00:10 | 26.11486 | -80.78481 | 6920 ft | 299 kts | 101° |
| 2026-05-04 00:10 | 26.11151 | -80.76190 | 6788 ft | 300 kts | 99° |
| 2026-05-04 00:11 | 26.10838 | -80.73900 | 6626 ft | 299 kts | 99° |
| 2026-05-04 00:11 | 26.10536 | -80.71621 | 6462 ft | 298 kts | 99° |
| 2026-05-04 00:11 | 26.10233 | -80.69310 | 6281 ft | 297 kts | 99° |
| 2026-05-04 00:11 | 26.09935 | -80.67039 | 6109 ft | 296 kts | 100° |
| 2026-05-04 00:12 | 26.09563 | -80.64804 | 5966 ft | 294 kts | 102° |
| 2026-05-04 00:12 | 26.09139 | -80.62576 | 5854 ft | 293 kts | 103° |
| 2026-05-04 00:12 | 26.08700 | -80.60366 | 5739 ft | 292 kts | 103° |
| 2026-05-04 00:12 | 26.08259 | -80.58162 | 5602 ft | 291 kts | 103° |
| 2026-05-04 00:13 | 26.07822 | -80.55972 | 5487 ft | 291 kts | 103° |
| 2026-05-04 00:13 | 26.07391 | -80.53777 | 5363 ft | 288 kts | 103° |
| 2026-05-04 00:13 | 26.06952 | -80.51607 | 5183 ft | 286 kts | 103° |
| 2026-05-04 00:13 | 26.06700 | -80.49389 | 4748 ft | 290 kts | 93° |
| 2026-05-04 00:14 | 26.06703 | -80.47128 | 4324 ft | 292 kts | 89° |
| 2026-05-04 00:14 | 26.06726 | -80.44876 | 3777 ft | 288 kts | 90° |
| 2026-05-04 00:14 | 26.06720 | -80.42726 | 3589 ft | 269 kts | 91° |
| 2026-05-04 00:14 | 26.06709 | -80.40691 | 3462 ft | 249 kts | 91° |
| 2026-05-04 00:15 | 26.06701 | -80.38832 | 3357 ft | 230 kts | 91° |
| 2026-05-04 00:15 | 26.06694 | -80.37112 | 3261 ft | 219 kts | 90° |
| 2026-05-04 00:15 | 26.06687 | -80.35428 | 3173 ft | 216 kts | 91° |
| 2026-05-04 00:15 | 26.06679 | -80.33763 | 3036 ft | 215 kts | 90° |
| 2026-05-04 00:16 | 26.06672 | -80.32086 | 2789 ft | 215 kts | 90° |
| 2026-05-04 00:16 | 26.06664 | -80.30424 | 2520 ft | 214 kts | 90° |
| 2026-05-04 00:16 | 26.06656 | -80.28736 | 2246 ft | 214 kts | 90° |
| 2026-05-04 00:16 | 26.06648 | -80.27102 | 1963 ft | 214 kts | 90° |
| 2026-05-04 00:17 | 26.06640 | -80.25450 | 1688 ft | 213 kts | 89° |
| 2026-05-04 00:17 | 26.06631 | -80.23824 | 1408 ft | 203 kts | 89° |
| 2026-05-04 00:17 | 26.06623 | -80.22293 | 1152 ft | 193 kts | 88° |
| 2026-05-04 00:17 | 26.06615 | -80.20802 | 914 ft | 181 kts | 89° |
| 2026-05-04 00:18 | 26.06607 | -80.19459 | 683 ft | 168 kts | 89° |
| 2026-05-04 00:18 | 26.06600 | -80.18127 | 463 ft | 149 kts | 88° |
| 2026-05-04 00:18 | 26.06594 | -80.17035 | 281 ft | 131 kts | 89° |
| 2026-05-04 00:18 | 26.06589 | -80.16117 | 116 ft | 128 kts | 88° |
| 2026-05-04 00:19 | 26.06590 | -80.15163 | 28 ft | 116 kts | 90° |
| 2026-05-04 00:19 | 26.06594 | -80.14406 | 17 ft | 78 kts | 92° |
| 2026-05-04 00:19 | 26.06587 | -80.13948 | 22 ft | 41 kts | 90° |
| 2026-05-04 00:19 | 26.06644 | -80.13762 | 25 ft | 13 kts | 43° |
| 2026-05-04 00:20 | 26.06657 | -80.13749 | 28 ft | 0 kts | 43° |
| 2026-05-04 00:20 | 26.06662 | -80.13744 | 25 ft | 1 kts | 43° |
| 2026-05-04 00:20 | 26.06673 | -80.13732 | 28 ft | 3 kts | 43° |
| 2026-05-04 00:20 | 26.06694 | -80.13711 | 26 ft | 0 kts | 43° |
| 2026-05-04 00:22 | 26.06695 | -80.13709 | 27 ft | 0 kts | 43° |
| 2026-05-04 00:23 | 26.06702 | -80.13705 | 27 ft | 3 kts | 23° |
| 2026-05-04 00:23 | 26.06735 | -80.13728 | 26 ft | 11 kts | 301° |
| 2026-05-04 00:23 | 26.06744 | -80.13853 | 28 ft | 19 kts | 271° |
| 2026-05-04 00:23 | 26.06730 | -80.14022 | 22 ft | 23 kts | 251° |
| 2026-05-04 00:24 | 26.06691 | -80.14130 | 20 ft | 23 kts | 261° |
| 2026-05-04 00:24 | 26.06691 | -80.14333 | 19 ft | 28 kts | 271° |
| 2026-05-04 00:24 | 26.06690 | -80.14541 | 17 ft | 29 kts | 269° |
| 2026-05-04 00:24 | 26.06689 | -80.14695 | 18 ft | 6 kts | 274° |
| 2026-05-04 00:25 | 26.06690 | -80.14707 | 18 ft | 3 kts | 274° |
| 2026-05-04 00:25 | 26.06692 | -80.14759 | 19 ft | 10 kts | 272° |
| 2026-05-04 00:25 | 26.06695 | -80.14854 | 21 ft | 14 kts | 271° |
| 2026-05-04 00:25 | 26.06754 | -80.14921 | 22 ft | 15 kts | 18° |
| 2026-05-04 00:26 | 26.06765 | -80.14807 | 21 ft | 18 kts | 88° |
| 2026-05-04 00:26 | 26.06771 | -80.14651 | 16 ft | 23 kts | 91° |
| 2026-05-04 00:26 | 26.06762 | -80.14469 | 17 ft | 24 kts | 94° |
| 2026-05-04 00:26 | 26.06764 | -80.14303 | 18 ft | 13 kts | 57° |
| 2026-05-04 00:27 | 26.06854 | -80.14297 | 18 ft | 14 kts | 351° |
| 2026-05-04 00:27 | 26.06884 | -80.14299 | 18 ft | 0 kts | 2° |